sensor_id;sensor_type;location;lat;lon;timestamp;P1;durP1;ratioP1;P2;durP2;ratioP2
32407;SDS011;18869;55.970;37.502;2022-08-25T00:02:21;15.63;;;8.43;;
32407;SDS011;18869;55.970;37.502;2022-08-25T00:04:49;11.63;;;8.47;;
32407;SDS011;18869;55.970;37.502;2022-08-25T00:07:18;18.03;;;9.30;;
32407;SDS011;18869;55.970;37.502;2022-08-25T00:09:46;11.37;;;8.27;;
32407;SDS011;18869;55.970;37.502;2022-08-25T00:12:16;15.30;;;8.97;;
32407;SDS011;18869;55.970;37.502;2022-08-25T00:14:43;13.47;;;8.27;;
32407;SDS011;18869;55.970;37.502;2022-08-25T00:17:11;13.93;;;8.33;;
32407;SDS011;18869;55.970;37.502;2022-08-25T00:19:39;15.10;;;8.53;;
32407;SDS011;18869;55.970;37.502;2022-08-25T00:22:07;16.23;;;8.13;;
32407;SDS011;18869;55.970;37.502;2022-08-25T00:24:36;12.53;;;8.30;;
32407;SDS011;18869;55.970;37.502;2022-08-25T00:27:04;15.57;;;8.07;;
32407;SDS011;18869;55.970;37.502;2022-08-25T00:29:34;13.70;;;8.03;;
32407;SDS011;18869;55.970;37.502;2022-08-25T00:32:03;16.20;;;8.60;;
32407;SDS011;18869;55.970;37.502;2022-08-25T00:34:34;13.37;;;8.37;;
32407;SDS011;18869;55.970;37.502;2022-08-25T00:37:04;12.67;;;8.07;;
32407;SDS011;18869;55.970;37.502;2022-08-25T00:39:37;12.80;;;8.07;;
32407;SDS011;18869;55.970;37.502;2022-08-25T00:42:06;10.07;;;7.37;;
32407;SDS011;18869;55.970;37.502;2022-08-25T00:44:35;11.03;;;8.13;;
32407;SDS011;18869;55.970;37.502;2022-08-25T00:47:04;17.93;;;8.20;;
32407;SDS011;18869;55.970;37.502;2022-08-25T00:49:36;12.77;;;8.27;;
32407;SDS011;18869;55.970;37.502;2022-08-25T00:52:07;9.13;;;7.77;;
32407;SDS011;18869;55.970;37.502;2022-08-25T00:54:40;13.27;;;7.47;;
32407;SDS011;18869;55.970;37.502;2022-08-25T00:57:11;10.63;;;7.70;;
32407;SDS011;18869;55.970;37.502;2022-08-25T00:59:42;12.03;;;7.77;;
32407;SDS011;18869;55.970;37.502;2022-08-25T01:02:09;12.20;;;7.90;;
32407;SDS011;18869;55.970;37.502;2022-08-25T01:04:39;14.73;;;8.03;;
32407;SDS011;18869;55.970;37.502;2022-08-25T01:07:10;15.17;;;8.97;;
32407;SDS011;18869;55.970;37.502;2022-08-25T01:09:39;11.60;;;8.47;;
32407;SDS011;18869;55.970;37.502;2022-08-25T01:12:08;13.80;;;8.53;;
32407;SDS011;18869;55.970;37.502;2022-08-25T01:14:36;12.57;;;8.00;;
32407;SDS011;18869;55.970;37.502;2022-08-25T01:17:04;17.77;;;9.23;;
32407;SDS011;18869;55.970;37.502;2022-08-25T01:19:32;15.60;;;8.47;;
32407;SDS011;18869;55.970;37.502;2022-08-25T01:22:02;12.80;;;8.03;;
32407;SDS011;18869;55.970;37.502;2022-08-25T01:24:34;11.80;;;9.07;;
32407;SDS011;18869;55.970;37.502;2022-08-25T01:27:07;14.07;;;8.83;;
32407;SDS011;18869;55.970;37.502;2022-08-25T01:29:36;12.03;;;7.87;;
32407;SDS011;18869;55.970;37.502;2022-08-25T01:32:09;18.90;;;9.43;;
32407;SDS011;18869;55.970;37.502;2022-08-25T01:34:40;19.63;;;9.70;;
32407;SDS011;18869;55.970;37.502;2022-08-25T01:37:12;13.73;;;9.17;;
32407;SDS011;18869;55.970;37.502;2022-08-25T01:39:45;13.53;;;9.93;;
32407;SDS011;18869;55.970;37.502;2022-08-25T01:42:22;10.33;;;8.23;;
32407;SDS011;18869;55.970;37.502;2022-08-25T01:45:00;11.03;;;8.97;;
32407;SDS011;18869;55.970;37.502;2022-08-25T01:47:30;16.07;;;9.03;;
32407;SDS011;18869;55.970;37.502;2022-08-25T01:49:58;11.77;;;8.70;;
32407;SDS011;18869;55.970;37.502;2022-08-25T01:52:28;10.73;;;9.13;;
32407;SDS011;18869;55.970;37.502;2022-08-25T01:54:59;13.47;;;8.87;;
32407;SDS011;18869;55.970;37.502;2022-08-25T01:57:29;15.13;;;9.53;;
32407;SDS011;18869;55.970;37.502;2022-08-25T01:59:56;12.93;;;8.77;;
32407;SDS011;18869;55.970;37.502;2022-08-25T02:02:26;14.57;;;8.83;;
32407;SDS011;18869;55.970;37.502;2022-08-25T02:04:55;13.33;;;9.37;;
32407;SDS011;18869;55.970;37.502;2022-08-25T02:07:22;13.50;;;9.73;;
32407;SDS011;18869;55.970;37.502;2022-08-25T02:09:51;13.60;;;9.63;;
32407;SDS011;18869;55.970;37.502;2022-08-25T02:12:19;15.33;;;8.40;;
32407;SDS011;18869;55.970;37.502;2022-08-25T02:15:07;11.57;;;8.77;;
32407;SDS011;18869;55.970;37.502;2022-08-25T02:17:36;14.33;;;9.33;;
32407;SDS011;18869;55.970;37.502;2022-08-25T02:20:04;12.50;;;9.17;;
32407;SDS011;18869;55.970;37.502;2022-08-25T02:22:33;14.37;;;8.93;;
32407;SDS011;18869;55.970;37.502;2022-08-25T02:25:03;14.83;;;9.57;;
32407;SDS011;18869;55.970;37.502;2022-08-25T02:27:32;14.83;;;9.27;;
32407;SDS011;18869;55.970;37.502;2022-08-25T02:30:00;14.70;;;10.17;;
32407;SDS011;18869;55.970;37.502;2022-08-25T02:32:29;17.00;;;9.70;;
32407;SDS011;18869;55.970;37.502;2022-08-25T02:34:56;14.70;;;9.90;;
32407;SDS011;18869;55.970;37.502;2022-08-25T02:37:28;12.13;;;8.77;;
32407;SDS011;18869;55.970;37.502;2022-08-25T02:39:56;19.70;;;9.90;;
32407;SDS011;18869;55.970;37.502;2022-08-25T02:42:25;15.17;;;11.40;;
32407;SDS011;18869;55.970;37.502;2022-08-25T02:44:53;17.07;;;10.50;;
32407;SDS011;18869;55.970;37.502;2022-08-25T02:47:21;14.13;;;10.40;;
32407;SDS011;18869;55.970;37.502;2022-08-25T02:49:49;17.37;;;9.83;;
32407;SDS011;18869;55.970;37.502;2022-08-25T02:52:17;15.50;;;9.43;;
32407;SDS011;18869;55.970;37.502;2022-08-25T02:54:45;15.73;;;9.63;;
32407;SDS011;18869;55.970;37.502;2022-08-25T02:57:14;14.77;;;10.30;;
32407;SDS011;18869;55.970;37.502;2022-08-25T02:59:44;16.40;;;10.27;;
32407;SDS011;18869;55.970;37.502;2022-08-25T03:02:13;21.03;;;11.53;;
32407;SDS011;18869;55.970;37.502;2022-08-25T03:04:41;23.00;;;11.07;;
32407;SDS011;18869;55.970;37.502;2022-08-25T03:07:12;18.03;;;10.27;;
32407;SDS011;18869;55.970;37.502;2022-08-25T03:09:40;13.40;;;9.57;;
32407;SDS011;18869;55.970;37.502;2022-08-25T03:12:08;15.17;;;10.47;;
32407;SDS011;18869;55.970;37.502;2022-08-25T03:17:45;17.63;;;10.87;;
32407;SDS011;18869;55.970;37.502;2022-08-25T03:20:15;24.97;;;11.73;;
32407;SDS011;18869;55.970;37.502;2022-08-25T03:22:43;18.23;;;10.93;;
32407;SDS011;18869;55.970;37.502;2022-08-25T03:25:12;24.93;;;11.13;;
32407;SDS011;18869;55.970;37.502;2022-08-25T03:27:58;20.53;;;11.63;;
32407;SDS011;18869;55.970;37.502;2022-08-25T03:30:26;21.50;;;11.53;;
32407;SDS011;18869;55.970;37.502;2022-08-25T03:32:56;18.03;;;11.40;;
32407;SDS011;18869;55.970;37.502;2022-08-25T03:35:25;18.67;;;10.77;;
32407;SDS011;18869;55.970;37.502;2022-08-25T03:37:55;21.13;;;12.23;;
32407;SDS011;18869;55.970;37.502;2022-08-25T03:40:23;17.80;;;11.13;;
32407;SDS011;18869;55.970;37.502;2022-08-25T03:42:54;19.53;;;11.70;;
32407;SDS011;18869;55.970;37.502;2022-08-25T03:45:23;21.80;;;12.77;;
32407;SDS011;18869;55.970;37.502;2022-08-25T03:47:52;22.57;;;12.10;;
32407;SDS011;18869;55.970;37.502;2022-08-25T03:50:22;20.90;;;11.70;;
32407;SDS011;18869;55.970;37.502;2022-08-25T03:52:51;21.30;;;13.17;;
32407;SDS011;18869;55.970;37.502;2022-08-25T03:55:19;23.13;;;13.27;;
32407;SDS011;18869;55.970;37.502;2022-08-25T03:57:49;20.53;;;12.17;;
32407;SDS011;18869;55.970;37.502;2022-08-25T04:00:18;18.90;;;12.70;;
32407;SDS011;18869;55.970;37.502;2022-08-25T04:02:47;21.10;;;13.70;;
32407;SDS011;18869;55.970;37.502;2022-08-25T04:05:15;18.53;;;12.97;;
32407;SDS011;18869;55.970;37.502;2022-08-25T04:07:45;21.93;;;13.47;;
32407;SDS011;18869;55.970;37.502;2022-08-25T04:10:13;21.57;;;13.30;;
32407;SDS011;18869;55.970;37.502;2022-08-25T04:12:42;23.27;;;13.13;;
32407;SDS011;18869;55.970;37.502;2022-08-25T04:15:10;28.77;;;13.43;;
32407;SDS011;18869;55.970;37.502;2022-08-25T04:17:38;16.97;;;12.10;;
32407;SDS011;18869;55.970;37.502;2022-08-25T04:20:07;21.33;;;13.10;;
32407;SDS011;18869;55.970;37.502;2022-08-25T04:22:40;18.67;;;13.23;;
32407;SDS011;18869;55.970;37.502;2022-08-25T04:25:09;24.37;;;13.03;;
32407;SDS011;18869;55.970;37.502;2022-08-25T04:27:37;18.97;;;13.20;;
32407;SDS011;18869;55.970;37.502;2022-08-25T04:30:05;23.47;;;14.27;;
32407;SDS011;18869;55.970;37.502;2022-08-25T04:32:34;20.07;;;12.47;;
32407;SDS011;18869;55.970;37.502;2022-08-25T04:35:02;18.33;;;13.63;;
32407;SDS011;18869;55.970;37.502;2022-08-25T04:37:31;24.57;;;14.67;;
32407;SDS011;18869;55.970;37.502;2022-08-25T04:39:59;27.83;;;16.27;;
32407;SDS011;18869;55.970;37.502;2022-08-25T04:42:30;24.93;;;15.87;;
32407;SDS011;18869;55.970;37.502;2022-08-25T04:44:59;25.43;;;16.27;;
32407;SDS011;18869;55.970;37.502;2022-08-25T04:47:30;22.10;;;16.27;;
32407;SDS011;18869;55.970;37.502;2022-08-25T04:49:58;24.13;;;16.80;;
32407;SDS011;18869;55.970;37.502;2022-08-25T04:52:25;29.07;;;17.70;;
32407;SDS011;18869;55.970;37.502;2022-08-25T04:54:53;29.20;;;18.97;;
32407;SDS011;18869;55.970;37.502;2022-08-25T04:57:21;29.60;;;18.20;;
32407;SDS011;18869;55.970;37.502;2022-08-25T04:59:50;30.27;;;19.83;;
32407;SDS011;18869;55.970;37.502;2022-08-25T05:02:21;26.80;;;18.87;;
32407;SDS011;18869;55.970;37.502;2022-08-25T05:04:50;28.27;;;19.00;;
32407;SDS011;18869;55.970;37.502;2022-08-25T05:07:18;30.47;;;19.67;;
32407;SDS011;18869;55.970;37.502;2022-08-25T05:09:46;29.43;;;20.03;;
32407;SDS011;18869;55.970;37.502;2022-08-25T05:12:13;33.07;;;20.40;;
32407;SDS011;18869;55.970;37.502;2022-08-25T05:14:41;26.93;;;19.90;;
32407;SDS011;18869;55.970;37.502;2022-08-25T05:17:14;33.77;;;20.23;;
32407;SDS011;18869;55.970;37.502;2022-08-25T05:19:42;28.03;;;18.90;;
32407;SDS011;18869;55.970;37.502;2022-08-25T05:22:10;28.50;;;18.97;;
32407;SDS011;18869;55.970;37.502;2022-08-25T05:24:38;33.63;;;19.45;;
32407;SDS011;18869;55.970;37.502;2022-08-25T05:27:07;27.00;;;17.60;;
32407;SDS011;18869;55.970;37.502;2022-08-25T05:29:34;27.05;;;17.27;;
32407;SDS011;18869;55.970;37.502;2022-08-25T05:32:05;24.80;;;17.15;;
32407;SDS011;18869;55.970;37.502;2022-08-25T05:34:36;32.05;;;18.87;;
32407;SDS011;18869;55.970;37.502;2022-08-25T05:37:04;28.58;;;18.52;;
32407;SDS011;18869;55.970;37.502;2022-08-25T05:39:32;28.38;;;18.52;;
32407;SDS011;18869;55.970;37.502;2022-08-25T05:41:59;29.95;;;16.83;;
32407;SDS011;18869;55.970;37.502;2022-08-25T05:44:27;22.20;;;15.98;;
32407;SDS011;18869;55.970;37.502;2022-08-25T05:46:56;24.27;;;16.23;;
32407;SDS011;18869;55.970;37.502;2022-08-25T05:49:24;27.45;;;17.10;;
32407;SDS011;18869;55.970;37.502;2022-08-25T05:51:53;22.02;;;16.58;;
32407;SDS011;18869;55.970;37.502;2022-08-25T05:54:21;21.52;;;16.80;;
32407;SDS011;18869;55.970;37.502;2022-08-25T05:56:49;28.12;;;16.80;;
32407;SDS011;18869;55.970;37.502;2022-08-25T05:59:16;26.25;;;16.87;;
32407;SDS011;18869;55.970;37.502;2022-08-25T06:01:45;23.98;;;16.17;;
32407;SDS011;18869;55.970;37.502;2022-08-25T06:04:30;24.50;;;15.30;;
32407;SDS011;18869;55.970;37.502;2022-08-25T06:06:59;23.45;;;16.15;;
32407;SDS011;18869;55.970;37.502;2022-08-25T06:09:27;21.85;;;15.32;;
32407;SDS011;18869;55.970;37.502;2022-08-25T06:12:02;24.63;;;14.20;;
32407;SDS011;18869;55.970;37.502;2022-08-25T06:14:30;27.85;;;13.35;;
32407;SDS011;18869;55.970;37.502;2022-08-25T06:16:59;18.12;;;10.82;;
32407;SDS011;18869;55.970;37.502;2022-08-25T06:19:26;14.87;;;11.25;;
32407;SDS011;18869;55.970;37.502;2022-08-25T06:21:56;17.80;;;10.00;;
32407;SDS011;18869;55.970;37.502;2022-08-25T06:24:26;15.88;;;10.13;;
32407;SDS011;18869;55.970;37.502;2022-08-25T06:26:54;16.15;;;9.80;;
32407;SDS011;18869;55.970;37.502;2022-08-25T06:29:22;17.52;;;9.68;;
32407;SDS011;18869;55.970;37.502;2022-08-25T06:31:51;13.55;;;9.40;;
32407;SDS011;18869;55.970;37.502;2022-08-25T06:34:19;11.32;;;9.00;;
32407;SDS011;18869;55.970;37.502;2022-08-25T06:36:47;12.05;;;8.93;;
32407;SDS011;18869;55.970;37.502;2022-08-25T06:39:16;14.98;;;9.25;;
32407;SDS011;18869;55.970;37.502;2022-08-25T06:41:45;17.58;;;9.05;;
32407;SDS011;18869;55.970;37.502;2022-08-25T06:44:17;14.80;;;8.40;;
32407;SDS011;18869;55.970;37.502;2022-08-25T06:46:46;12.23;;;8.27;;
32407;SDS011;18869;55.970;37.502;2022-08-25T06:49:14;13.30;;;7.70;;
32407;SDS011;18869;55.970;37.502;2022-08-25T06:51:42;15.38;;;6.90;;
32407;SDS011;18869;55.970;37.502;2022-08-25T06:54:10;11.23;;;7.57;;
32407;SDS011;18869;55.970;37.502;2022-08-25T06:56:39;11.20;;;7.70;;
32407;SDS011;18869;55.970;37.502;2022-08-25T06:59:08;11.38;;;7.25;;
32407;SDS011;18869;55.970;37.502;2022-08-25T07:01:37;11.60;;;6.85;;
32407;SDS011;18869;55.970;37.502;2022-08-25T07:04:05;8.60;;;6.55;;
32407;SDS011;18869;55.970;37.502;2022-08-25T07:06:34;7.82;;;6.40;;
32407;SDS011;18869;55.970;37.502;2022-08-25T07:09:03;10.80;;;6.20;;
32407;SDS011;18869;55.970;37.502;2022-08-25T07:11:32;9.85;;;5.95;;
32407;SDS011;18869;55.970;37.502;2022-08-25T07:14:00;13.38;;;6.25;;
32407;SDS011;18869;55.970;37.502;2022-08-25T07:16:30;8.20;;;5.55;;
32407;SDS011;18869;55.970;37.502;2022-08-25T07:18:59;7.00;;;5.90;;
32407;SDS011;18869;55.970;37.502;2022-08-25T07:21:30;7.00;;;5.85;;
32407;SDS011;18869;55.970;37.502;2022-08-25T07:23:58;7.43;;;6.30;;
32407;SDS011;18869;55.970;37.502;2022-08-25T07:26:29;7.25;;;5.65;;
32407;SDS011;18869;55.970;37.502;2022-08-25T07:28:59;11.82;;;6.87;;
32407;SDS011;18869;55.970;37.502;2022-08-25T07:31:27;12.73;;;6.05;;
32407;SDS011;18869;55.970;37.502;2022-08-25T07:33:56;7.22;;;5.72;;
32407;SDS011;18869;55.970;37.502;2022-08-25T07:36:42;12.68;;;6.55;;
32407;SDS011;18869;55.970;37.502;2022-08-25T07:39:10;8.50;;;5.85;;
32407;SDS011;18869;55.970;37.502;2022-08-25T07:41:38;11.88;;;6.62;;
32407;SDS011;18869;55.970;37.502;2022-08-25T07:44:08;11.77;;;6.68;;
32407;SDS011;18869;55.970;37.502;2022-08-25T07:46:37;7.78;;;6.50;;
32407;SDS011;18869;55.970;37.502;2022-08-25T07:49:07;6.50;;;5.87;;
32407;SDS011;18869;55.970;37.502;2022-08-25T07:51:35;7.78;;;5.93;;
32407;SDS011;18869;55.970;37.502;2022-08-25T07:54:03;7.12;;;6.07;;
32407;SDS011;18869;55.970;37.502;2022-08-25T07:56:32;7.20;;;6.12;;
32407;SDS011;18869;55.970;37.502;2022-08-25T07:59:00;6.57;;;5.87;;
32407;SDS011;18869;55.970;37.502;2022-08-25T08:01:27;11.63;;;5.80;;
32407;SDS011;18869;55.970;37.502;2022-08-25T08:03:56;10.98;;;6.18;;
32407;SDS011;18869;55.970;37.502;2022-08-25T08:06:25;7.40;;;5.82;;
32407;SDS011;18869;55.970;37.502;2022-08-25T08:08:53;8.88;;;5.85;;
32407;SDS011;18869;55.970;37.502;2022-08-25T08:11:23;7.20;;;5.70;;
32407;SDS011;18869;55.970;37.502;2022-08-25T08:13:52;6.18;;;5.37;;
32407;SDS011;18869;55.970;37.502;2022-08-25T08:16:22;10.10;;;5.47;;
32407;SDS011;18869;55.970;37.502;2022-08-25T08:18:51;7.85;;;5.62;;
32407;SDS011;18869;55.970;37.502;2022-08-25T08:21:20;6.75;;;5.70;;
32407;SDS011;18869;55.970;37.502;2022-08-25T08:23:51;5.95;;;5.45;;
32407;SDS011;18869;55.970;37.502;2022-08-25T08:26:19;5.80;;;4.85;;
32407;SDS011;18869;55.970;37.502;2022-08-25T08:28:47;5.78;;;5.10;;
32407;SDS011;18869;55.970;37.502;2022-08-25T08:31:17;8.75;;;5.22;;
32407;SDS011;18869;55.970;37.502;2022-08-25T08:33:46;4.90;;;4.45;;
32407;SDS011;18869;55.970;37.502;2022-08-25T08:36:14;6.28;;;5.22;;
32407;SDS011;18869;55.970;37.502;2022-08-25T08:38:45;5.87;;;5.22;;
32407;SDS011;18869;55.970;37.502;2022-08-25T08:41:20;7.00;;;5.10;;
32407;SDS011;18869;55.970;37.502;2022-08-25T08:44:23;4.90;;;4.43;;
32407;SDS011;18869;55.970;37.502;2022-08-25T08:47:00;5.55;;;4.82;;
32407;SDS011;18869;55.970;37.502;2022-08-25T08:49:34;4.90;;;4.50;;
32407;SDS011;18869;55.970;37.502;2022-08-25T08:52:06;5.62;;;4.40;;
32407;SDS011;18869;55.970;37.502;2022-08-25T08:54:36;5.18;;;4.62;;
32407;SDS011;18869;55.970;37.502;2022-08-25T08:57:09;4.45;;;4.15;;
32407;SDS011;18869;55.970;37.502;2022-08-25T08:59:46;4.53;;;4.12;;
32407;SDS011;18869;55.970;37.502;2022-08-25T09:02:18;7.93;;;4.47;;
32407;SDS011;18869;55.970;37.502;2022-08-25T09:04:51;5.20;;;3.85;;
32407;SDS011;18869;55.970;37.502;2022-08-25T09:07:23;4.70;;;4.30;;
32407;SDS011;18869;55.970;37.502;2022-08-25T09:09:57;10.88;;;4.47;;
32407;SDS011;18869;55.970;37.502;2022-08-25T09:12:28;5.78;;;4.80;;
32407;SDS011;18869;55.970;37.502;2022-08-25T09:15:03;5.00;;;4.50;;
32407;SDS011;18869;55.970;37.502;2022-08-25T09:17:54;4.50;;;4.10;;
32407;SDS011;18869;55.970;37.502;2022-08-25T09:23:26;4.12;;;3.83;;
32407;SDS011;18869;55.970;37.502;2022-08-25T09:26:02;6.85;;;4.85;;
32407;SDS011;18869;55.970;37.502;2022-08-25T09:28:45;5.53;;;5.03;;
32407;SDS011;18869;55.970;37.502;2022-08-25T09:31:16;4.57;;;4.18;;
32407;SDS011;18869;55.970;37.502;2022-08-25T09:33:46;4.15;;;3.83;;
32407;SDS011;18869;55.970;37.502;2022-08-25T09:36:14;4.00;;;3.70;;
32407;SDS011;18869;55.970;37.502;2022-08-25T09:38:42;4.22;;;3.92;;
32407;SDS011;18869;55.970;37.502;2022-08-25T09:41:09;4.82;;;4.37;;
32407;SDS011;18869;55.970;37.502;2022-08-25T09:43:43;5.62;;;4.18;;
32407;SDS011;18869;55.970;37.502;2022-08-25T09:46:22;4.60;;;4.20;;
32407;SDS011;18869;55.970;37.502;2022-08-25T09:48:52;6.65;;;4.45;;
32407;SDS011;18869;55.970;37.502;2022-08-25T09:51:23;5.28;;;4.40;;
32407;SDS011;18869;55.970;37.502;2022-08-25T09:53:53;5.25;;;4.20;;
32407;SDS011;18869;55.970;37.502;2022-08-25T09:56:22;4.70;;;4.12;;
32407;SDS011;18869;55.970;37.502;2022-08-25T09:58:53;5.60;;;4.10;;
32407;SDS011;18869;55.970;37.502;2022-08-25T10:01:22;9.13;;;4.65;;
32407;SDS011;18869;55.970;37.502;2022-08-25T10:03:55;10.23;;;4.22;;
32407;SDS011;18869;55.970;37.502;2022-08-25T10:06:25;4.47;;;4.00;;
32407;SDS011;18869;55.970;37.502;2022-08-25T10:08:56;4.47;;;4.10;;
32407;SDS011;18869;55.970;37.502;2022-08-25T10:14:21;6.97;;;4.32;;
32407;SDS011;18869;55.970;37.502;2022-08-25T10:17:10;8.13;;;4.20;;
32407;SDS011;18869;55.970;37.502;2022-08-25T10:19:40;4.85;;;3.62;;
32407;SDS011;18869;55.970;37.502;2022-08-25T10:22:08;4.20;;;3.80;;
32407;SDS011;18869;55.970;37.502;2022-08-25T10:24:38;5.40;;;4.20;;
32407;SDS011;18869;55.970;37.502;2022-08-25T10:27:14;4.47;;;4.07;;
32407;SDS011;18869;55.970;37.502;2022-08-25T10:32:48;4.53;;;4.12;;
32407;SDS011;18869;55.970;37.502;2022-08-25T10:35:29;7.22;;;4.40;;
32407;SDS011;18869;55.970;37.502;2022-08-25T10:38:04;5.97;;;4.93;;
32407;SDS011;18869;55.970;37.502;2022-08-25T10:40:39;4.47;;;4.03;;
32407;SDS011;18869;55.970;37.502;2022-08-25T10:46:24;8.23;;;4.32;;
32407;SDS011;18869;55.970;37.502;2022-08-25T10:48:57;5.35;;;4.85;;
32407;SDS011;18869;55.970;37.502;2022-08-25T10:51:28;5.30;;;4.72;;
32407;SDS011;18869;55.970;37.502;2022-08-25T10:54:02;4.90;;;4.37;;
32407;SDS011;18869;55.970;37.502;2022-08-25T10:56:40;6.03;;;4.90;;
32407;SDS011;18869;55.970;37.502;2022-08-25T11:05:25;5.32;;;4.85;;
32407;SDS011;18869;55.970;37.502;2022-08-25T11:07:56;5.80;;;4.78;;
32407;SDS011;18869;55.970;37.502;2022-08-25T11:10:30;6.15;;;5.28;;
32407;SDS011;18869;55.970;37.502;2022-08-25T11:13:05;5.05;;;4.55;;
32407;SDS011;18869;55.970;37.502;2022-08-25T11:15:40;6.28;;;4.82;;
32407;SDS011;18869;55.970;37.502;2022-08-25T11:18:15;6.93;;;5.15;;
32407;SDS011;18869;55.970;37.502;2022-08-25T11:20:44;6.00;;;5.40;;
32407;SDS011;18869;55.970;37.502;2022-08-25T11:23:14;6.65;;;5.28;;
32407;SDS011;18869;55.970;37.502;2022-08-25T11:25:46;5.90;;;4.90;;
32407;SDS011;18869;55.970;37.502;2022-08-25T11:28:19;9.43;;;5.30;;
32407;SDS011;18869;55.970;37.502;2022-08-25T11:30:50;7.25;;;5.45;;
32407;SDS011;18869;55.970;37.502;2022-08-25T11:33:21;5.78;;;5.28;;
32407;SDS011;18869;55.970;37.502;2022-08-25T11:35:51;8.02;;;5.95;;
32407;SDS011;18869;55.970;37.502;2022-08-25T11:38:26;8.82;;;5.40;;
32407;SDS011;18869;55.970;37.502;2022-08-25T11:41:04;9.68;;;5.40;;
32407;SDS011;18869;55.970;37.502;2022-08-25T11:43:47;11.35;;;5.70;;
32407;SDS011;18869;55.970;37.502;2022-08-25T11:46:25;6.47;;;5.75;;
32407;SDS011;18869;55.970;37.502;2022-08-25T11:49:02;9.77;;;5.80;;
32407;SDS011;18869;55.970;37.502;2022-08-25T11:51:41;8.55;;;5.35;;
32407;SDS011;18869;55.970;37.502;2022-08-25T11:54:20;6.60;;;5.50;;
32407;SDS011;18869;55.970;37.502;2022-08-25T11:57:04;6.25;;;5.65;;
32407;SDS011;18869;55.970;37.502;2022-08-25T12:00:00;6.32;;;5.30;;
32407;SDS011;18869;55.970;37.502;2022-08-25T12:02:34;6.15;;;5.55;;
32407;SDS011;18869;55.970;37.502;2022-08-25T12:05:06;6.00;;;5.30;;
32407;SDS011;18869;55.970;37.502;2022-08-25T12:10:54;9.13;;;5.50;;
32407;SDS011;18869;55.970;37.502;2022-08-25T12:13:40;5.37;;;4.87;;
32407;SDS011;18869;55.970;37.502;2022-08-25T12:19:22;6.32;;;5.65;;
32407;SDS011;18869;55.970;37.502;2022-08-25T12:21:54;10.93;;;5.30;;
32407;SDS011;18869;55.970;37.502;2022-08-25T12:24:24;7.60;;;5.85;;
32407;SDS011;18869;55.970;37.502;2022-08-25T12:27:19;6.32;;;5.72;;
32407;SDS011;18869;55.970;37.502;2022-08-25T12:29:51;7.60;;;6.35;;
32407;SDS011;18869;55.970;37.502;2022-08-25T12:32:26;6.25;;;5.70;;
32407;SDS011;18869;55.970;37.502;2022-08-25T12:37:56;8.00;;;6.47;;
32407;SDS011;18869;55.970;37.502;2022-08-25T12:40:27;6.32;;;5.72;;
32407;SDS011;18869;55.970;37.502;2022-08-25T12:43:02;6.37;;;5.78;;
32407;SDS011;18869;55.970;37.502;2022-08-25T12:45:33;7.68;;;6.10;;
32407;SDS011;18869;55.970;37.502;2022-08-25T12:51:14;8.18;;;6.75;;
32407;SDS011;18869;55.970;37.502;2022-08-25T12:53:47;7.97;;;6.18;;
32407;SDS011;18869;55.970;37.502;2022-08-25T12:56:22;7.07;;;5.80;;
32407;SDS011;18869;55.970;37.502;2022-08-25T12:58:54;7.20;;;5.25;;
32407;SDS011;18869;55.970;37.502;2022-08-25T13:01:35;8.80;;;5.82;;
32407;SDS011;18869;55.970;37.502;2022-08-25T13:04:23;8.63;;;6.50;;
32407;SDS011;18869;55.970;37.502;2022-08-25T13:07:09;6.93;;;6.20;;
32407;SDS011;18869;55.970;37.502;2022-08-25T13:10:09;9.43;;;6.60;;
32407;SDS011;18869;55.970;37.502;2022-08-25T13:12:43;7.05;;;6.03;;
32407;SDS011;18869;55.970;37.502;2022-08-25T13:15:15;8.63;;;6.35;;
32407;SDS011;18869;55.970;37.502;2022-08-25T13:17:53;6.07;;;5.45;;
32407;SDS011;18869;55.970;37.502;2022-08-25T13:20:22;9.27;;;6.22;;
32407;SDS011;18869;55.970;37.502;2022-08-25T13:22:52;6.85;;;6.22;;
32407;SDS011;18869;55.970;37.502;2022-08-25T13:25:27;8.45;;;6.10;;
32407;SDS011;18869;55.970;37.502;2022-08-25T13:27:56;12.30;;;6.62;;
32407;SDS011;18869;55.970;37.502;2022-08-25T13:30:26;6.37;;;5.70;;
32407;SDS011;18869;55.970;37.502;2022-08-25T13:32:56;9.68;;;6.20;;
32407;SDS011;18869;55.970;37.502;2022-08-25T13:35:26;7.12;;;6.43;;
32407;SDS011;18869;55.970;37.502;2022-08-25T13:38:10;11.38;;;6.95;;
32407;SDS011;18869;55.970;37.502;2022-08-25T13:40:39;8.68;;;6.57;;
32407;SDS011;18869;55.970;37.502;2022-08-25T13:43:08;8.85;;;7.30;;
32407;SDS011;18869;55.970;37.502;2022-08-25T13:45:40;6.95;;;6.25;;
32407;SDS011;18869;55.970;37.502;2022-08-25T13:48:11;9.40;;;6.22;;
32407;SDS011;18869;55.970;37.502;2022-08-25T13:50:40;6.60;;;6.00;;
32407;SDS011;18869;55.970;37.502;2022-08-25T13:53:10;6.65;;;6.05;;
32407;SDS011;18869;55.970;37.502;2022-08-25T13:55:49;7.37;;;6.07;;
32407;SDS011;18869;55.970;37.502;2022-08-25T13:58:19;8.63;;;7.10;;
32407;SDS011;18869;55.970;37.502;2022-08-25T14:00:59;7.22;;;6.12;;
32407;SDS011;18869;55.970;37.502;2022-08-25T14:03:30;11.90;;;6.10;;
32407;SDS011;18869;55.970;37.502;2022-08-25T14:06:06;8.23;;;6.35;;
32407;SDS011;18869;55.970;37.502;2022-08-25T14:08:36;7.35;;;6.65;;
32407;SDS011;18869;55.970;37.502;2022-08-25T14:11:08;8.15;;;5.87;;
32407;SDS011;18869;55.970;37.502;2022-08-25T14:13:38;8.43;;;6.22;;
32407;SDS011;18869;55.970;37.502;2022-08-25T14:16:07;8.15;;;6.05;;
32407;SDS011;18869;55.970;37.502;2022-08-25T14:18:37;7.80;;;7.03;;
32407;SDS011;18869;55.970;37.502;2022-08-25T14:21:07;7.25;;;6.22;;
32407;SDS011;18869;55.970;37.502;2022-08-25T14:23:37;10.00;;;6.65;;
32407;SDS011;18869;55.970;37.502;2022-08-25T14:26:07;9.25;;;6.47;;
32407;SDS011;18869;55.970;37.502;2022-08-25T14:28:35;7.75;;;5.70;;
32407;SDS011;18869;55.970;37.502;2022-08-25T14:31:03;7.00;;;6.00;;
32407;SDS011;18869;55.970;37.502;2022-08-25T14:33:34;8.15;;;5.90;;
32407;SDS011;18869;55.970;37.502;2022-08-25T14:36:04;7.20;;;6.53;;
32407;SDS011;18869;55.970;37.502;2022-08-25T14:38:32;8.23;;;6.55;;
32407;SDS011;18869;55.970;37.502;2022-08-25T14:41:01;9.70;;;6.87;;
32407;SDS011;18869;55.970;37.502;2022-08-25T14:43:30;7.70;;;6.78;;
32407;SDS011;18869;55.970;37.502;2022-08-25T14:45:59;8.68;;;6.65;;
32407;SDS011;18869;55.970;37.502;2022-08-25T14:48:29;9.80;;;6.40;;
32407;SDS011;18869;55.970;37.502;2022-08-25T14:50:59;7.12;;;5.87;;
32407;SDS011;18869;55.970;37.502;2022-08-25T14:53:27;7.70;;;6.12;;
32407;SDS011;18869;55.970;37.502;2022-08-25T14:55:55;11.02;;;6.37;;
32407;SDS011;18869;55.970;37.502;2022-08-25T14:58:23;8.43;;;6.57;;
32407;SDS011;18869;55.970;37.502;2022-08-25T15:00:53;7.75;;;6.37;;
32407;SDS011;18869;55.970;37.502;2022-08-25T15:03:24;9.15;;;6.37;;
32407;SDS011;18869;55.970;37.502;2022-08-25T15:05:55;9.98;;;6.97;;
32407;SDS011;18869;55.970;37.502;2022-08-25T15:08:23;6.53;;;5.90;;
32407;SDS011;18869;55.970;37.502;2022-08-25T15:11:08;8.45;;;6.40;;
32407;SDS011;18869;55.970;37.502;2022-08-25T15:13:37;9.45;;;6.55;;
32407;SDS011;18869;55.970;37.502;2022-08-25T15:16:06;10.02;;;6.40;;
32407;SDS011;18869;55.970;37.502;2022-08-25T15:18:35;8.52;;;6.62;;
32407;SDS011;18869;55.970;37.502;2022-08-25T15:21:03;7.72;;;6.37;;